createdAt,value
2022-10-15T00:00:35.297Z,12.7
2022-10-15T00:03:35.313Z,12.7
2022-10-15T00:06:35.357Z,12.7
2022-10-15T00:09:35.353Z,12.7
2022-10-15T00:12:35.377Z,12.7
2022-10-15T00:15:35.394Z,12.7
2022-10-15T00:18:35.409Z,12.7
2022-10-15T00:21:35.427Z,12.7
2022-10-15T00:24:35.474Z,12.7
2022-10-15T00:27:35.471Z,12.7
2022-10-15T00:30:35.495Z,12.7
2022-10-15T00:33:35.505Z,12.7
2022-10-15T00:36:35.511Z,12.7
2022-10-15T00:39:35.522Z,12.7
2022-10-15T00:42:35.556Z,12.7
2022-10-15T00:45:35.550Z,12.6
2022-10-15T00:48:35.553Z,12.6
2022-10-15T00:51:35.559Z,12.6
2022-10-15T00:54:35.569Z,12.6
2022-10-15T00:57:35.573Z,12.6
2022-10-15T01:00:35.613Z,12.6
2022-10-15T01:03:35.577Z,12.6
2022-10-15T01:06:35.583Z,12.6
2022-10-15T01:09:35.593Z,12.6
2022-10-15T01:12:35.586Z,12.7
2022-10-15T01:15:35.604Z,12.7
2022-10-15T01:18:35.617Z,12.8
2022-10-15T01:21:35.600Z,12.8
2022-10-15T01:24:35.600Z,12.8
2022-10-15T01:27:35.607Z,12.8
2022-10-15T01:30:35.611Z,12.8
2022-10-15T01:33:35.600Z,12.8
2022-10-15T01:36:35.624Z,12.7
2022-10-15T01:39:35.605Z,12.7
2022-10-15T01:42:35.604Z,12.7
2022-10-15T01:45:35.616Z,12.7
2022-10-15T01:48:35.608Z,12.7
2022-10-15T01:51:35.606Z,12.7
2022-10-15T01:54:35.631Z,12.7
2022-10-15T01:57:35.613Z,12.7
2022-10-15T02:00:35.627Z,12.7
2022-10-15T02:03:35.609Z,12.7
2022-10-15T02:06:35.614Z,12.7
2022-10-15T02:09:35.717Z,12.7
2022-10-15T02:12:35.647Z,12.7
2022-10-15T02:15:35.628Z,12.7
2022-10-15T02:18:35.623Z,12.7
2022-10-15T02:21:35.625Z,12.6
2022-10-15T02:24:35.620Z,12.6
2022-10-15T02:27:35.625Z,12.6
2022-10-15T02:30:35.669Z,12.5
2022-10-15T02:33:35.633Z,12.5
2022-10-15T02:36:35.628Z,12.5
2022-10-15T02:39:35.626Z,12.4
2022-10-15T02:42:35.637Z,12.3
2022-10-15T02:45:35.642Z,12.2
2022-10-15T02:48:35.668Z,12.1
2022-10-15T02:51:35.633Z,12.2
2022-10-15T02:54:35.630Z,12.1
2022-10-15T02:57:35.641Z,12.1
2022-10-15T03:00:35.649Z,12
2022-10-15T03:03:35.639Z,12
2022-10-15T03:06:35.671Z,12
2022-10-15T03:09:35.649Z,11.9
2022-10-15T03:12:35.642Z,11.9
2022-10-15T03:15:35.674Z,11.8
2022-10-15T03:18:36.813Z,11.8
2022-10-15T03:21:35.653Z,11.8
2022-10-15T03:24:35.678Z,11.8
2022-10-15T03:27:35.652Z,11.8
2022-10-15T03:30:35.662Z,11.8
2022-10-15T03:33:35.652Z,11.9
2022-10-15T03:36:35.649Z,11.9
2022-10-15T03:39:35.657Z,12
2022-10-15T03:42:35.677Z,12.1
2022-10-15T03:45:35.677Z,12.1
2022-10-15T03:48:35.657Z,12.2
2022-10-15T03:51:35.654Z,12.3
2022-10-15T03:54:35.654Z,12.3
2022-10-15T03:57:35.658Z,12.3
2022-10-15T04:00:35.703Z,12.1
2022-10-15T04:03:35.658Z,12
2022-10-15T04:06:35.663Z,11.8
2022-10-15T04:09:35.665Z,11.7
2022-10-15T04:12:35.670Z,11.6
2022-10-15T04:15:35.678Z,11.6
2022-10-15T04:18:35.692Z,11.5
2022-10-15T04:21:35.669Z,11.4
2022-10-15T04:24:35.671Z,11.4
2022-10-15T04:27:35.680Z,11.4
2022-10-15T04:30:35.690Z,11.4
2022-10-15T04:33:35.683Z,11.4
2022-10-15T04:36:35.702Z,11.3
2022-10-15T04:39:35.683Z,11.2
2022-10-15T04:42:35.684Z,11.1
2022-10-15T04:45:35.700Z,11.1
2022-10-15T04:48:36.591Z,11
2022-10-15T04:51:35.692Z,10.9
2022-10-15T04:54:35.719Z,10.8
2022-10-15T04:57:35.694Z,10.6
2022-10-15T05:00:35.726Z,10.6
2022-10-15T05:03:36.607Z,10.6
2022-10-15T05:06:35.735Z,10.6
2022-10-15T05:09:37.067Z,10.6
2022-10-15T05:12:35.810Z,10.5
2022-10-15T05:15:35.721Z,10.6
2022-10-15T05:18:35.707Z,10.7
2022-10-15T05:21:35.795Z,10.7
2022-10-15T05:24:35.718Z,10.7
2022-10-15T05:27:35.710Z,10.6
2022-10-15T05:30:35.753Z,10.6
2022-10-15T05:33:35.715Z,10.6
2022-10-15T05:36:35.715Z,10.7
2022-10-15T05:39:35.717Z,10.6
2022-10-15T05:42:35.722Z,10.6
2022-10-15T05:45:35.729Z,10.6
2022-10-15T05:48:35.764Z,10.6
2022-10-15T05:51:35.727Z,10.6
2022-10-15T05:54:35.732Z,10.7
2022-10-15T05:57:35.733Z,10.9
2022-10-15T06:00:35.764Z,11
2022-10-15T06:03:35.738Z,11.1
2022-10-15T06:06:35.760Z,11.1
2022-10-15T06:09:35.742Z,11.2
2022-10-15T06:12:35.745Z,11.2
2022-10-15T06:15:35.765Z,11.2
2022-10-15T06:18:35.746Z,11.1
2022-10-15T06:21:35.757Z,11.2
2022-10-15T06:24:35.774Z,11.2
2022-10-15T06:27:35.755Z,11.2
2022-10-15T06:30:35.771Z,11.2
2022-10-15T06:33:35.755Z,11.1
2022-10-15T06:36:35.758Z,11
2022-10-15T06:39:35.774Z,11
2022-10-15T06:42:35.786Z,11.1
2022-10-15T06:45:35.778Z,11.1
2022-10-15T06:48:35.771Z,11.1
2022-10-15T06:51:35.770Z,11.2
2022-10-15T06:54:35.773Z,11.3
2022-10-15T06:57:35.787Z,11.5
2022-10-15T07:03:35.788Z,11.9
2022-10-15T07:06:35.785Z,12
2022-10-15T07:09:35.787Z,12.1
2022-10-15T07:12:35.791Z,12.2
2022-10-15T07:15:35.791Z,12.2
2022-10-15T07:18:35.821Z,12.2
2022-10-15T07:21:35.803Z,12.3
2022-10-15T07:24:35.791Z,12.3
2022-10-15T07:27:35.800Z,12.4
2022-10-15T07:30:35.807Z,12.5
2022-10-15T07:33:35.798Z,12.5
2022-10-15T07:36:35.828Z,12.6
2022-10-15T07:39:37.702Z,12.7
2022-10-15T07:42:35.798Z,12.7
2022-10-15T07:45:35.819Z,12.8
2022-10-15T07:48:35.811Z,13.1
2022-10-15T07:51:35.819Z,13.3
2022-10-15T07:54:35.849Z,13.4
2022-10-15T07:57:35.823Z,13.5
2022-10-15T08:00:35.839Z,13.6
2022-10-15T08:03:35.825Z,13.7
2022-10-15T08:06:35.833Z,13.3
2022-10-15T08:09:35.852Z,13.2
2022-10-15T08:12:35.858Z,13
2022-10-15T08:15:35.855Z,12.8
2022-10-15T08:18:35.841Z,12.8
2022-10-15T08:21:35.841Z,12.9
2022-10-15T08:24:35.841Z,12.9
2022-10-15T08:27:35.867Z,12.9
2022-10-15T08:30:35.878Z,12.9
2022-10-15T08:33:35.852Z,13
2022-10-15T08:36:36.032Z,13.2
2022-10-15T08:39:35.848Z,13.2
2022-10-15T08:42:35.853Z,13.4
2022-10-15T08:45:35.876Z,13.5
2022-10-15T08:48:35.884Z,13.7
2022-10-15T08:51:35.856Z,13.9
2022-10-15T08:54:35.866Z,14.2
2022-10-15T08:57:35.871Z,14.5
2022-10-15T09:00:35.879Z,14.4
2022-10-15T09:03:35.870Z,14.6
2022-10-15T09:06:35.896Z,14.5
2022-10-15T09:09:35.876Z,14.7
2022-10-15T09:12:35.878Z,14.7
2022-10-15T09:15:35.955Z,14.6
2022-10-15T09:18:35.889Z,14.6
2022-10-15T09:21:35.894Z,14.8
2022-10-15T09:24:35.922Z,14.7
2022-10-15T09:27:35.893Z,14.7
2022-10-15T09:30:35.909Z,14.7
2022-10-15T09:33:35.917Z,14.8
2022-10-15T09:36:35.901Z,14.8
2022-10-15T09:39:35.909Z,14.9
2022-10-15T09:42:35.945Z,14.9
2022-10-15T09:45:35.928Z,14.7
2022-10-15T09:48:35.929Z,14.3
2022-10-15T09:51:35.925Z,14.1
2022-10-15T09:54:35.928Z,13.9
2022-10-15T09:57:35.938Z,13.8
2022-10-15T10:00:35.970Z,13.9
2022-10-15T10:03:35.936Z,13.9
2022-10-15T10:06:35.941Z,14
2022-10-15T10:09:35.950Z,14.1
2022-10-15T10:12:35.945Z,14.2
2022-10-15T10:15:35.954Z,14.2
2022-10-15T10:18:35.986Z,14.1
2022-10-15T10:21:35.963Z,14.2
2022-10-15T10:24:35.962Z,14.2
2022-10-15T10:27:35.963Z,14.2
2022-10-15T10:30:35.979Z,14.2
2022-10-15T10:33:35.969Z,14.4
2022-10-15T10:36:37.284Z,14.8
2022-10-15T10:39:35.976Z,14.9
2022-10-15T10:42:35.986Z,14.8
2022-10-15T10:45:36.001Z,14.6
2022-10-15T10:48:35.993Z,14.4
2022-10-15T10:51:35.997Z,14.4
2022-10-15T10:54:36.067Z,14.2
2022-10-15T10:57:36.006Z,14.2
2022-10-15T11:00:36.049Z,14
2022-10-15T11:03:36.013Z,14.1
2022-10-15T11:06:36.016Z,14.2
2022-10-15T11:09:36.014Z,14.1
2022-10-15T11:12:36.045Z,14.2
2022-10-15T11:15:36.033Z,14.2
2022-10-15T11:18:36.029Z,14.1
2022-10-15T11:21:36.037Z,14.1
2022-10-15T11:24:42.446Z,14
2022-10-15T11:27:36.043Z,13.9
2022-10-15T11:30:36.079Z,13.9
2022-10-15T11:33:36.054Z,13.9
2022-10-15T11:36:36.058Z,14.1
2022-10-15T11:39:36.056Z,14.1
2022-10-15T11:42:36.061Z,14.2
2022-10-15T11:45:36.074Z,14.3
2022-10-15T11:48:36.090Z,14.3
2022-10-15T11:51:36.069Z,14.2
2022-10-15T11:54:36.073Z,14.1
2022-10-15T11:57:36.078Z,14.1
2022-10-15T12:00:36.090Z,14.1
2022-10-15T12:03:36.082Z,14
2022-10-15T12:06:36.125Z,13.8
2022-10-15T12:09:36.101Z,13.8
2022-10-15T12:12:36.103Z,14
2022-10-15T12:15:36.107Z,14
2022-10-15T12:18:36.113Z,14.2
2022-10-15T12:21:36.111Z,14
2022-10-15T12:24:36.180Z,13.9
2022-10-15T12:27:36.126Z,14
2022-10-15T12:30:36.140Z,14
2022-10-15T12:33:36.131Z,13.9
2022-10-15T12:36:36.136Z,13.8
2022-10-15T12:39:52.802Z,13.7
2022-10-15T12:42:36.167Z,13.7
2022-10-15T12:45:37.461Z,13.7
2022-10-15T12:48:36.159Z,13.7
2022-10-15T12:51:36.166Z,13.7
2022-10-15T12:54:36.175Z,13.8
2022-10-15T12:57:36.175Z,13.7
2022-10-15T13:00:36.465Z,13.7
2022-10-15T13:03:36.196Z,13.6
2022-10-15T13:06:36.191Z,13.6
2022-10-15T13:09:36.192Z,13.6
2022-10-15T13:12:36.201Z,13.6
2022-10-15T13:15:36.263Z,13.6
2022-10-15T13:18:36.240Z,13.4
2022-10-15T13:21:36.225Z,13.5
2022-10-15T13:24:36.220Z,13.3
2022-10-15T13:27:36.227Z,13.2
2022-10-15T13:30:36.383Z,13.1
2022-10-15T13:33:36.240Z,13.1
2022-10-15T13:36:36.271Z,13.1
2022-10-15T13:39:36.357Z,13.1
2022-10-15T13:42:36.251Z,13
2022-10-15T13:45:36.352Z,12.8
2022-10-15T13:48:36.329Z,12.6
2022-10-15T13:51:36.279Z,12.6
2022-10-15T13:54:36.309Z,12.5
2022-10-15T13:57:36.300Z,12.5
2022-10-15T14:00:36.472Z,12.5
2022-10-15T14:03:36.293Z,12.5
2022-10-15T14:06:36.300Z,12.4
2022-10-15T14:09:36.318Z,12.4
2022-10-15T14:12:36.334Z,12.4
2022-10-15T14:15:36.493Z,12.5
2022-10-15T14:18:36.319Z,12.6
2022-10-15T14:21:36.326Z,12.6
2022-10-15T14:24:36.332Z,12.6
2022-10-15T14:27:36.337Z,12.5
2022-10-15T14:30:36.381Z,12.5
2022-10-15T14:33:36.349Z,12.5
2022-10-15T14:36:36.348Z,12.5
2022-10-15T14:39:36.362Z,12.5
2022-10-15T14:42:36.361Z,12.5
2022-10-15T14:45:36.373Z,12.5
2022-10-15T14:48:36.393Z,12.5
2022-10-15T14:51:36.375Z,12.5
2022-10-15T14:54:36.380Z,12.5
2022-10-15T14:57:36.380Z,12.6
2022-10-15T15:00:36.410Z,12.6
2022-10-15T15:03:36.399Z,12.7
2022-10-15T15:06:36.421Z,12.8
2022-10-15T15:09:36.402Z,12.9
2022-10-15T15:12:36.418Z,12.9
2022-10-15T15:15:36.425Z,12.9
2022-10-15T15:18:36.417Z,12.9
2022-10-15T15:21:36.427Z,13
2022-10-15T15:24:36.455Z,13
2022-10-15T15:27:36.436Z,13
2022-10-15T15:30:36.453Z,13
2022-10-15T15:33:36.455Z,13
2022-10-15T15:36:36.460Z,13
2022-10-15T15:39:36.464Z,13.1
2022-10-15T15:42:36.500Z,13
2022-10-15T15:45:36.485Z,13
2022-10-15T15:48:36.479Z,13
2022-10-15T15:51:36.484Z,13
2022-10-15T15:54:36.489Z,13
2022-10-15T15:57:36.491Z,13
2022-10-15T16:00:36.547Z,12.9
2022-10-15T16:03:36.506Z,13
2022-10-15T16:06:36.512Z,12.9
2022-10-15T16:09:36.521Z,13
2022-10-15T16:12:36.531Z,13
2022-10-15T16:15:36.544Z,13
2022-10-15T16:18:36.559Z,13
2022-10-15T16:21:36.537Z,13
2022-10-15T16:24:36.551Z,13
2022-10-15T16:27:36.554Z,13
2022-10-15T16:30:36.575Z,13
2022-10-15T16:33:36.572Z,13.1
2022-10-15T16:36:36.602Z,13.1
2022-10-15T16:39:36.584Z,13.1
2022-10-15T16:42:36.590Z,13.1
2022-10-15T16:45:36.615Z,13.1
2022-10-15T16:48:36.606Z,13.2
2022-10-15T16:51:37.588Z,13.2
2022-10-15T16:54:36.643Z,13.2
2022-10-15T16:57:36.620Z,13.2
2022-10-15T17:00:36.691Z,13.2
2022-10-15T17:03:36.633Z,13.2
2022-10-15T17:06:36.644Z,13.2
2022-10-15T17:09:36.696Z,13.2
2022-10-15T17:12:36.674Z,13.3
2022-10-15T17:15:36.672Z,13.3
2022-10-15T17:18:36.676Z,13.3
2022-10-15T17:21:36.677Z,13.3
2022-10-15T17:24:36.683Z,13.4
2022-10-15T17:27:36.692Z,13.3
2022-10-15T17:30:36.739Z,13.3
2022-10-15T17:33:36.706Z,13.3
2022-10-15T17:36:36.713Z,13.3
2022-10-15T17:39:36.718Z,13.3
2022-10-15T17:42:36.733Z,13.3
2022-10-15T17:45:36.738Z,13.3
2022-10-15T17:48:36.753Z,13.3
2022-10-15T17:51:36.740Z,13.3
2022-10-15T17:54:36.748Z,13.3
2022-10-15T17:57:36.758Z,13.3
2022-10-15T18:00:36.924Z,13.3
2022-10-15T18:03:36.772Z,13.3
2022-10-15T18:06:36.803Z,13.3
2022-10-15T18:09:36.781Z,13.3
2022-10-15T18:12:36.803Z,13.4
2022-10-15T18:15:38.059Z,13.4
2022-10-15T18:18:36.811Z,13.4
2022-10-15T18:21:36.823Z,13.4
2022-10-15T18:24:36.861Z,13.4
2022-10-15T18:27:36.842Z,13.4
2022-10-15T18:30:36.855Z,13.4
2022-10-15T18:33:36.862Z,13.5
2022-10-15T18:36:36.871Z,13.5
2022-10-15T18:39:36.879Z,13.5
2022-10-15T18:42:36.908Z,13.4
2022-10-15T18:45:36.899Z,13.4
2022-10-15T18:48:36.906Z,13.5
2022-10-15T18:51:36.913Z,13.5
2022-10-15T18:54:36.919Z,13.4
2022-10-15T18:57:36.937Z,13.4
2022-10-15T19:00:36.966Z,13.4
2022-10-15T19:03:36.953Z,13.4
2022-10-15T19:06:36.964Z,13.4
2022-10-15T19:09:36.973Z,13.4
2022-10-15T19:12:36.993Z,13.4
2022-10-15T19:15:37.000Z,13.5
2022-10-15T19:18:37.040Z,13.5
2022-10-15T19:21:37.014Z,13.5
2022-10-15T19:24:37.032Z,13.5
2022-10-15T19:27:37.040Z,13.6
2022-10-15T19:30:37.051Z,13.7
2022-10-15T19:33:37.063Z,13.8
2022-10-15T19:36:37.104Z,13.8
2022-10-15T19:39:37.085Z,13.8
2022-10-15T19:42:37.095Z,13.9
2022-10-15T19:45:37.108Z,13.9
2022-10-15T19:48:37.130Z,14
2022-10-15T19:51:37.130Z,14
2022-10-15T19:54:37.167Z,14
2022-10-15T19:57:37.153Z,14
2022-10-15T20:00:37.159Z,14
2022-10-15T20:03:37.178Z,13.9
2022-10-15T20:06:37.191Z,13.9
2022-10-15T20:09:37.183Z,13.9
2022-10-15T20:12:37.313Z,13.9
2022-10-15T20:15:37.197Z,13.9
2022-10-15T20:18:37.219Z,13.9
2022-10-15T20:21:37.263Z,14
2022-10-15T20:24:37.234Z,14
2022-10-15T20:27:37.231Z,14.1
2022-10-15T20:30:37.266Z,14.1
2022-10-15T20:33:37.250Z,14.1
2022-10-15T20:36:37.257Z,14.1
2022-10-15T20:39:37.261Z,14.2
2022-10-15T20:42:37.281Z,14.2
2022-10-15T20:45:37.285Z,14.2
2022-10-15T20:48:37.322Z,14.3
2022-10-15T20:51:37.298Z,14.3
2022-10-15T20:54:37.310Z,14.4
2022-10-15T20:57:37.320Z,14.4
2022-10-15T21:00:37.325Z,14.4
2022-10-15T21:03:37.326Z,14.4
2022-10-15T21:06:37.367Z,14.4
2022-10-15T21:09:37.345Z,14.5
2022-10-15T21:12:37.357Z,14.5
2022-10-15T21:15:37.358Z,14.5
2022-10-15T21:18:37.370Z,14.5
2022-10-15T21:21:37.370Z,14.6
2022-10-15T21:24:37.408Z,14.5
2022-10-15T21:27:37.394Z,14.5
2022-10-15T21:30:37.395Z,14.6
2022-10-15T21:33:37.410Z,14.6
2022-10-15T21:36:37.419Z,14.6
2022-10-15T21:39:37.424Z,14.6
2022-10-15T21:42:37.453Z,14.6
2022-10-15T21:45:37.447Z,14.6
2022-10-15T21:48:37.448Z,14.6
2022-10-15T21:51:37.453Z,14.6
2022-10-15T21:54:37.463Z,14.6
2022-10-15T21:57:37.460Z,14.5
2022-10-15T22:00:37.493Z,14.5
2022-10-15T22:03:37.477Z,14.4
2022-10-15T22:06:37.480Z,14.4
2022-10-15T22:09:37.488Z,14.4
2022-10-15T22:12:37.499Z,14.4
2022-10-15T22:15:37.499Z,14.4
2022-10-15T22:18:37.537Z,14.3
2022-10-15T22:21:37.514Z,14.3
2022-10-15T22:24:37.523Z,14.2
2022-10-15T22:27:37.518Z,14.2
2022-10-15T22:30:37.531Z,14
2022-10-15T22:33:37.534Z,13.9
2022-10-15T22:36:37.563Z,13.9
2022-10-15T22:39:37.550Z,13.8
2022-10-15T22:42:37.562Z,13.8
2022-10-15T22:45:37.559Z,13.5
2022-10-15T22:48:37.565Z,13.5
2022-10-15T22:51:37.570Z,13.4
2022-10-15T22:54:37.603Z,13.4
2022-10-15T22:57:37.579Z,13.3
2022-10-15T23:00:37.591Z,13.3
2022-10-15T23:03:37.587Z,13
2022-10-15T23:06:37.592Z,12.5
2022-10-15T23:09:37.599Z,12.4
2022-10-15T23:12:37.623Z,12.1
2022-10-15T23:15:37.612Z,11.8
2022-10-15T23:18:37.609Z,11.5
2022-10-15T23:21:37.615Z,11.3
2022-10-15T23:24:37.627Z,11.2
2022-10-15T23:27:37.629Z,11.2
2022-10-15T23:30:37.659Z,11.1
2022-10-15T23:33:37.635Z,11.2
2022-10-15T23:36:37.640Z,11.2
2022-10-15T23:39:37.656Z,11.2
2022-10-15T23:42:37.647Z,11.3
2022-10-15T23:45:38.122Z,11.3
2022-10-15T23:48:37.679Z,11.3
2022-10-15T23:51:37.668Z,11.6
2022-10-15T23:54:37.661Z,11.8
2022-10-15T23:57:37.666Z,11.9
